createdAt,value
2022-07-31T00:00:44.790Z,1009.9
2022-07-31T00:01:47.487Z,1009.9
2022-07-31T00:02:50.369Z,1009.9
2022-07-31T00:03:52.837Z,1009.9
2022-07-31T00:04:55.805Z,1009.9
2022-07-31T00:05:58.398Z,1009.9
2022-07-31T00:07:04.262Z,1009.9
2022-07-31T00:08:08.618Z,1010
2022-07-31T00:09:54.681Z,1010
2022-07-31T00:10:58.569Z,1010
2022-07-31T00:12:01.461Z,1009.9
2022-07-31T00:13:04.450Z,1009.9
2022-07-31T00:14:07.122Z,1009.9
2022-07-31T00:15:09.678Z,1009.9
2022-07-31T00:16:11.972Z,1009.9
2022-07-31T00:17:14.542Z,1009.9
2022-07-31T00:18:17.176Z,1009.9
2022-07-31T00:19:19.860Z,1009.9
2022-07-31T00:20:22.772Z,1009.9
2022-07-31T00:21:26.277Z,1009.9
2022-07-31T00:22:29.758Z,1009.9
2022-07-31T00:23:32.661Z,1009.9
2022-07-31T00:24:35.355Z,1009.9
2022-07-31T00:25:37.914Z,1009.9
2022-07-31T00:26:42.044Z,1009.9
2022-07-31T00:27:44.626Z,1010
2022-07-31T00:28:47.634Z,1009.9
2022-07-31T00:29:50.204Z,1009.9
2022-07-31T00:30:52.851Z,1009.9
2022-07-31T00:31:55.828Z,1009.9
2022-07-31T00:32:58.395Z,1010
2022-07-31T00:34:01.339Z,1009.9
2022-07-31T00:35:03.705Z,1009.9
2022-07-31T00:36:06.643Z,1009.8
2022-07-31T00:37:09.552Z,1009.9
2022-07-31T00:38:28.408Z,1009.8
2022-07-31T00:39:32.592Z,1009.9
2022-07-31T00:40:35.217Z,1009.9
2022-07-31T00:41:37.562Z,1009.9
2022-07-31T00:42:39.985Z,1009.9
2022-07-31T00:43:43.199Z,1009.9
2022-07-31T00:44:48.662Z,1009.9
2022-07-31T00:45:59.420Z,1009.9
2022-07-31T00:47:04.798Z,1009.9
2022-07-31T00:48:08.977Z,1009.9
2022-07-31T00:49:14.124Z,1009.9
2022-07-31T00:50:17.491Z,1009.9
2022-07-31T00:51:20.052Z,1009.9
2022-07-31T00:52:22.116Z,1009.9
2022-07-31T00:53:24.478Z,1009.8
2022-07-31T00:54:26.826Z,1009.8
2022-07-31T00:55:29.959Z,1009.8
2022-07-31T00:56:54.593Z,1009.8
2022-07-31T00:57:57.494Z,1009.7
2022-07-31T00:59:00.647Z,1009.8
2022-07-31T01:00:03.611Z,1009.8
2022-07-31T01:01:06.610Z,1009.8
2022-07-31T01:02:09.012Z,1009.8
2022-07-31T01:03:11.661Z,1009.8
2022-07-31T01:04:15.850Z,1009.8
2022-07-31T01:05:19.537Z,1009.8
2022-07-31T01:06:22.382Z,1009.8
2022-07-31T01:07:25.079Z,1009.8
2022-07-31T01:08:27.157Z,1009.8
2022-07-31T01:09:29.999Z,1009.7
2022-07-31T01:10:32.577Z,1009.8
2022-07-31T01:11:37.120Z,1009.8
2022-07-31T01:12:41.182Z,1009.8
2022-07-31T01:13:44.308Z,1009.8
2022-07-31T01:14:47.767Z,1009.8
2022-07-31T01:15:50.674Z,1009.8
2022-07-31T01:16:53.558Z,1009.8
2022-07-31T01:17:55.941Z,1009.8
2022-07-31T01:18:58.544Z,1009.8
2022-07-31T01:20:00.916Z,1009.8
2022-07-31T01:21:03.794Z,1009.8
2022-07-31T01:22:35.018Z,1009.8
2022-07-31T01:23:37.439Z,1009.7
2022-07-31T01:24:40.076Z,1009.7
2022-07-31T01:25:43.328Z,1009.7
2022-07-31T01:26:45.892Z,1009.8
2022-07-31T01:27:50.148Z,1009.8
2022-07-31T01:28:53.132Z,1009.8
2022-07-31T01:29:55.421Z,1009.8
2022-07-31T01:31:26.980Z,1009.8
2022-07-31T01:32:31.018Z,1009.8
2022-07-31T01:33:33.654Z,1009.8
2022-07-31T01:34:39.280Z,1009.8
2022-07-31T01:35:42.191Z,1009.8
2022-07-31T01:36:44.051Z,1009.8
2022-07-31T01:37:46.694Z,1009.7
2022-07-31T01:38:49.673Z,1009.8
2022-07-31T01:39:52.515Z,1009.8
2022-07-31T01:40:55.999Z,1009.7
2022-07-31T01:41:58.729Z,1009.8
2022-07-31T01:43:02.001Z,1009.8
2022-07-31T01:44:04.415Z,1009.8
2022-07-31T01:45:07.196Z,1009.8
2022-07-31T01:46:12.910Z,1009.7
2022-07-31T01:47:15.330Z,1009.8
2022-07-31T01:48:18.244Z,1009.8
2022-07-31T01:49:20.816Z,1009.8
2022-07-31T01:50:44.357Z,1009.8
2022-07-31T01:51:46.995Z,1009.7
2022-07-31T01:52:50.441Z,1009.7
2022-07-31T01:53:53.007Z,1009.8
2022-07-31T01:54:55.159Z,1009.8
2022-07-31T01:56:04.596Z,1009.8
2022-07-31T01:57:07.257Z,1009.8
2022-07-31T01:58:09.823Z,1009.8
2022-07-31T01:59:22.524Z,1009.8
2022-07-31T02:00:35.155Z,1009.8
2022-07-31T02:01:41.511Z,1009.8
2022-07-31T02:02:48.104Z,1009.8
2022-07-31T02:03:56.862Z,1009.8
2022-07-31T02:05:04.108Z,1009.8
2022-07-31T02:06:06.610Z,1009.8
2022-07-31T02:07:09.253Z,1009.8
2022-07-31T02:08:14.031Z,1009.8
2022-07-31T02:09:16.373Z,1009.8
2022-07-31T02:10:19.064Z,1009.8
2022-07-31T02:11:22.251Z,1009.8
2022-07-31T02:12:34.494Z,1009.7
2022-07-31T02:13:37.836Z,1009.7
2022-07-31T02:14:40.938Z,1009.7
2022-07-31T02:15:43.274Z,1009.8
2022-07-31T02:16:45.619Z,1009.8
2022-07-31T02:17:48.025Z,1009.8
2022-07-31T02:18:51.039Z,1009.7
2022-07-31T02:20:00.740Z,1009.7
2022-07-31T02:21:04.001Z,1009.7
2022-07-31T02:22:07.282Z,1009.7
2022-07-31T02:23:09.354Z,1009.6
2022-07-31T02:24:12.550Z,1009.7
2022-07-31T02:25:15.224Z,1009.7
2022-07-31T02:26:18.073Z,1009.6
2022-07-31T02:27:59.360Z,1009.6
2022-07-31T02:29:02.186Z,1009.6
2022-07-31T02:30:04.903Z,1009.6
2022-07-31T02:31:08.361Z,1009.6
2022-07-31T02:32:11.361Z,1009.7
2022-07-31T02:33:15.122Z,1009.7
2022-07-31T02:34:18.289Z,1009.7
2022-07-31T02:35:22.023Z,1009.7
2022-07-31T02:36:24.789Z,1009.7
2022-07-31T02:37:27.456Z,1009.7
2022-07-31T02:38:29.218Z,1009.7
2022-07-31T02:39:31.850Z,1009.7
2022-07-31T02:40:34.194Z,1009.7
2022-07-31T02:41:37.096Z,1009.7
2022-07-31T02:42:40.062Z,1009.7
2022-07-31T02:43:42.694Z,1009.7
2022-07-31T02:44:44.990Z,1009.7
2022-07-31T02:45:47.620Z,1009.7
2022-07-31T02:46:50.026Z,1009.8
2022-07-31T02:47:53.002Z,1009.7
2022-07-31T02:48:55.446Z,1009.7
2022-07-31T02:49:58.130Z,1009.7
2022-07-31T02:51:01.514Z,1009.7
2022-07-31T02:52:04.297Z,1009.7
2022-07-31T02:53:09.227Z,1009.7
2022-07-31T02:54:12.421Z,1009.7
2022-07-31T02:55:15.121Z,1009.7
2022-07-31T02:56:18.026Z,1009.7
2022-07-31T02:57:20.400Z,1009.7
2022-07-31T02:58:23.212Z,1009.7
2022-07-31T02:59:25.570Z,1009.7
2022-07-31T03:00:28.333Z,1009.6
2022-07-31T03:01:31.516Z,1009.7
2022-07-31T03:02:38.466Z,1009.7
2022-07-31T03:03:41.083Z,1009.7
2022-07-31T03:04:43.441Z,1009.7
2022-07-31T03:05:45.304Z,1009.7
2022-07-31T03:06:48.495Z,1009.7
2022-07-31T03:07:51.959Z,1009.7
2022-07-31T03:08:53.976Z,1009.6
2022-07-31T03:09:56.610Z,1009.7
2022-07-31T03:10:59.852Z,1009.7
2022-07-31T03:12:05.776Z,1009.6
2022-07-31T03:13:09.079Z,1009.6
2022-07-31T03:14:11.694Z,1009.7
2022-07-31T03:15:14.861Z,1009.6
2022-07-31T03:16:17.792Z,1009.6
2022-07-31T03:17:20.414Z,1009.6
2022-07-31T03:18:23.097Z,1009.6
2022-07-31T03:19:25.672Z,1009.6
2022-07-31T03:20:28.028Z,1009.6
2022-07-31T03:21:31.157Z,1009.6
2022-07-31T03:22:33.511Z,1009.6
2022-07-31T03:23:36.647Z,1009.6
2022-07-31T03:24:39.000Z,1009.6
2022-07-31T03:25:41.292Z,1009.6
2022-07-31T03:26:44.204Z,1009.7
2022-07-31T03:27:57.032Z,1009.6
2022-07-31T03:28:59.386Z,1009.6
2022-07-31T03:30:02.554Z,1009.6
2022-07-31T03:31:04.819Z,1009.6
2022-07-31T03:32:07.602Z,1009.6
2022-07-31T03:33:10.221Z,1009.6
2022-07-31T03:34:13.099Z,1009.6
2022-07-31T03:35:15.973Z,1009.6
2022-07-31T03:36:18.592Z,1009.6
2022-07-31T03:37:21.763Z,1009.6
2022-07-31T03:38:42.464Z,1009.6
2022-07-31T03:39:52.920Z,1009.5
2022-07-31T03:40:55.341Z,1009.6
2022-07-31T03:41:57.963Z,1009.5
2022-07-31T03:43:00.804Z,1009.6
2022-07-31T03:44:03.723Z,1009.6
2022-07-31T03:45:06.228Z,1009.5
2022-07-31T03:46:08.913Z,1009.6
2022-07-31T03:47:12.035Z,1009.6
2022-07-31T03:48:18.913Z,1009.6
2022-07-31T03:49:22.570Z,1009.5
2022-07-31T03:50:25.538Z,1009.6
2022-07-31T03:51:28.244Z,1009.5
2022-07-31T03:52:31.162Z,1009.5
2022-07-31T03:53:33.802Z,1009.5
2022-07-31T03:54:36.714Z,1009.5
2022-07-31T03:55:39.659Z,1009.6
2022-07-31T03:56:46.012Z,1009.5
2022-07-31T03:57:50.288Z,1009.5
2022-07-31T03:58:56.609Z,1009.5
2022-07-31T04:00:07.522Z,1009.6
2022-07-31T04:01:21.158Z,1009.6
2022-07-31T04:02:25.739Z,1009.5
2022-07-31T04:03:29.428Z,1009.6
2022-07-31T04:04:31.933Z,1009.5
2022-07-31T04:05:34.511Z,1009.6
2022-07-31T04:06:37.692Z,1009.6
2022-07-31T04:07:42.121Z,1009.6
2022-07-31T04:08:44.472Z,1009.6
2022-07-31T04:09:47.043Z,1009.6
2022-07-31T04:10:49.884Z,1009.6
2022-07-31T04:11:52.789Z,1009.6
2022-07-31T04:12:55.071Z,1009.6
2022-07-31T04:13:58.249Z,1009.6
2022-07-31T04:15:01.133Z,1009.6
2022-07-31T04:16:03.758Z,1009.6
2022-07-31T04:17:05.882Z,1009.6
2022-07-31T04:18:08.780Z,1009.6
2022-07-31T04:19:11.143Z,1009.6
2022-07-31T04:20:14.051Z,1009.6
2022-07-31T04:21:16.568Z,1009.6
2022-07-31T04:22:19.252Z,1009.6
2022-07-31T04:23:22.433Z,1009.6
2022-07-31T04:24:35.617Z,1009.6
2022-07-31T04:25:38.258Z,1009.5
2022-07-31T04:26:41.182Z,1009.5
2022-07-31T04:27:49.174Z,1009.5
2022-07-31T04:28:52.086Z,1009.5
2022-07-31T04:29:55.255Z,1009.6
2022-07-31T04:30:58.415Z,1009.6
2022-07-31T04:32:01.582Z,1009.6
2022-07-31T04:33:06.231Z,1009.5
2022-07-31T04:34:08.585Z,1009.5
2022-07-31T04:35:11.827Z,1009.5
2022-07-31T04:36:30.974Z,1009.5
2022-07-31T04:37:34.081Z,1009.5
2022-07-31T04:38:37.195Z,1009.5
2022-07-31T04:39:40.179Z,1009.5
2022-07-31T04:40:43.359Z,1009.5
2022-07-31T04:41:46.774Z,1009.5
2022-07-31T04:42:49.620Z,1009.5
2022-07-31T04:43:51.972Z,1009.6
2022-07-31T04:44:54.929Z,1009.5
2022-07-31T04:45:57.221Z,1009.6
2022-07-31T04:47:00.187Z,1009.6
2022-07-31T04:48:02.528Z,1009.6
2022-07-31T04:49:05.156Z,1009.6
2022-07-31T04:50:07.569Z,1009.6
2022-07-31T04:51:15.422Z,1009.6
2022-07-31T04:52:17.791Z,1009.6
2022-07-31T04:53:21.021Z,1009.6
2022-07-31T04:54:23.492Z,1009.5
2022-07-31T04:55:26.361Z,1009.6
2022-07-31T04:56:28.430Z,1009.6
2022-07-31T04:57:31.953Z,1009.6
2022-07-31T04:58:35.130Z,1009.5
2022-07-31T05:00:01.606Z,1009.6
2022-07-31T05:01:04.178Z,1009.6
2022-07-31T05:02:08.477Z,1009.5
2022-07-31T05:03:13.925Z,1009.6
2022-07-31T05:04:16.556Z,1009.6
2022-07-31T05:05:19.609Z,1009.6
2022-07-31T05:06:22.232Z,1009.6
2022-07-31T05:07:29.252Z,1009.5
2022-07-31T05:08:31.600Z,1009.5
2022-07-31T05:09:36.978Z,1009.5
2022-07-31T05:10:39.442Z,1009.5
2022-07-31T05:11:42.422Z,1009.6
2022-07-31T05:12:45.886Z,1009.5
2022-07-31T05:13:48.867Z,1009.5
2022-07-31T05:14:51.779Z,1009.6
2022-07-31T05:15:53.849Z,1009.5
2022-07-31T05:16:55.861Z,1009.5
2022-07-31T05:17:59.038Z,1009.6
2022-07-31T05:19:01.949Z,1009.6
2022-07-31T05:20:05.167Z,1009.6
2022-07-31T05:21:07.795Z,1009.6
2022-07-31T05:22:11.162Z,1009.6
2022-07-31T05:23:15.860Z,1009.6
2022-07-31T05:24:34.062Z,1009.6
2022-07-31T05:25:37.665Z,1009.6
2022-07-31T05:26:40.878Z,1009.6
2022-07-31T05:27:44.226Z,1009.6
2022-07-31T05:28:58.745Z,1009.6
2022-07-31T05:30:01.041Z,1009.7
2022-07-31T05:31:03.618Z,1009.6
2022-07-31T05:32:06.315Z,1009.7
2022-07-31T05:33:11.835Z,1009.7
2022-07-31T05:34:18.732Z,1009.8
2022-07-31T05:35:21.577Z,1009.8
2022-07-31T05:36:24.196Z,1009.7
2022-07-31T05:37:26.818Z,1009.8
2022-07-31T05:38:29.660Z,1009.7
2022-07-31T05:39:32.080Z,1009.7
2022-07-31T05:40:34.449Z,1009.7
2022-07-31T05:41:37.625Z,1009.7
2022-07-31T05:42:42.212Z,1009.7
2022-07-31T05:43:45.300Z,1009.7
2022-07-31T05:44:47.855Z,1009.7
2022-07-31T05:45:51.256Z,1009.7
2022-07-31T05:47:55.802Z,1009.7
2022-07-31T05:48:59.159Z,1009.7
2022-07-31T05:50:01.968Z,1009.7
2022-07-31T05:51:06.905Z,1009.7
2022-07-31T05:52:08.966Z,1009.7
2022-07-31T05:53:11.605Z,1009.7
2022-07-31T05:54:14.647Z,1009.7
2022-07-31T05:55:17.291Z,1009.6
2022-07-31T05:56:19.637Z,1009.7
2022-07-31T05:57:34.851Z,1009.7
2022-07-31T05:58:37.574Z,1009.7
2022-07-31T05:59:40.477Z,1009.7
2022-07-31T06:00:43.119Z,1009.7
2022-07-31T06:01:45.628Z,1009.7
2022-07-31T06:02:48.717Z,1009.7
2022-07-31T06:03:52.867Z,1009.7
2022-07-31T06:04:56.012Z,1009.7
2022-07-31T06:05:58.642Z,1009.7
2022-07-31T06:07:01.355Z,1009.7
2022-07-31T06:08:05.798Z,1009.7
2022-07-31T06:09:11.347Z,1009.7
2022-07-31T06:10:14.214Z,1009.8
2022-07-31T06:11:16.631Z,1009.7
2022-07-31T06:12:19.259Z,1009.7
2022-07-31T06:13:21.387Z,1009.7
2022-07-31T06:14:24.294Z,1009.7
2022-07-31T06:15:27.747Z,1009.7
2022-07-31T06:16:43.200Z,1009.7
2022-07-31T06:17:46.326Z,1009.7
2022-07-31T06:18:49.034Z,1009.8
2022-07-31T06:19:51.382Z,1009.7
2022-07-31T06:20:54.028Z,1009.7
2022-07-31T06:21:57.208Z,1009.8
2022-07-31T06:22:59.765Z,1009.7
2022-07-31T06:24:02.540Z,1009.7
2022-07-31T06:25:09.314Z,1009.7
2022-07-31T06:26:18.897Z,1009.7
2022-07-31T06:27:35.334Z,1009.7
2022-07-31T06:28:49.571Z,1009.7
2022-07-31T06:29:52.746Z,1009.7
2022-07-31T06:30:55.370Z,1009.7
2022-07-31T06:31:58.254Z,1009.7
2022-07-31T06:33:08.753Z,1009.7
2022-07-31T06:34:40.388Z,1009.7
2022-07-31T06:35:43.309Z,1009.7
2022-07-31T06:36:46.655Z,1009.7
2022-07-31T06:37:49.852Z,1009.7
2022-07-31T06:38:52.536Z,1009.7
2022-07-31T06:39:56.786Z,1009.7
2022-07-31T06:41:01.495Z,1009.7
2022-07-31T06:42:04.754Z,1009.7
2022-07-31T06:43:08.463Z,1009.7
2022-07-31T06:44:11.097Z,1009.7
2022-07-31T06:45:48.798Z,1009.7
2022-07-31T06:46:57.200Z,1009.7
2022-07-31T06:47:59.847Z,1009.7
2022-07-31T06:49:08.997Z,1009.6
2022-07-31T06:50:12.100Z,1009.7
2022-07-31T06:51:32.249Z,1009.7
2022-07-31T06:52:34.727Z,1009.6
2022-07-31T06:53:37.349Z,1009.6
2022-07-31T06:54:40.207Z,1009.6
2022-07-31T06:55:45.271Z,1009.6
2022-07-31T06:56:48.457Z,1009.6
2022-07-31T06:57:51.314Z,1009.7
2022-07-31T06:58:54.607Z,1009.7
2022-07-31T06:59:56.943Z,1009.7
2022-07-31T07:01:00.079Z,1009.7
2022-07-31T07:02:04.546Z,1009.7
2022-07-31T07:03:09.794Z,1009.7
2022-07-31T07:04:12.991Z,1009.8
2022-07-31T07:05:15.832Z,1009.8
2022-07-31T07:06:18.185Z,1009.8
2022-07-31T07:07:21.092Z,1009.7
2022-07-31T07:08:23.458Z,1009.8
2022-07-31T07:09:26.428Z,1009.7
2022-07-31T07:10:28.783Z,1009.7
2022-07-31T07:11:31.481Z,1009.7
2022-07-31T07:12:35.262Z,1009.7
2022-07-31T07:13:47.083Z,1009.7
2022-07-31T07:14:50.522Z,1009.7
2022-07-31T07:15:53.177Z,1009.7
2022-07-31T07:16:55.806Z,1009.6
2022-07-31T07:17:58.937Z,1009.6
2022-07-31T07:19:01.172Z,1009.6
2022-07-31T07:20:04.082Z,1009.6
2022-07-31T07:21:07.689Z,1009.6
2022-07-31T07:22:11.608Z,1009.6
2022-07-31T07:23:13.966Z,1009.6
2022-07-31T07:24:16.927Z,1009.5
2022-07-31T07:25:20.392Z,1009.5
2022-07-31T07:26:23.299Z,1009.6
2022-07-31T07:27:25.927Z,1009.6
2022-07-31T07:28:31.676Z,1009.6
2022-07-31T07:29:34.697Z,1009.6
2022-07-31T07:30:37.883Z,1009.6
2022-07-31T07:31:40.242Z,1009.5
2022-07-31T07:32:42.871Z,1009.5
2022-07-31T07:33:45.432Z,1009.5
2022-07-31T07:35:00.596Z,1009.5
2022-07-31T07:36:04.112Z,1009.5
2022-07-31T07:37:07.035Z,1009.5
2022-07-31T07:38:09.642Z,1009.5
2022-07-31T07:39:16.011Z,1009.5
2022-07-31T07:40:18.367Z,1009.5
2022-07-31T07:41:21.209Z,1009.5
2022-07-31T07:42:23.602Z,1009.5
2022-07-31T07:43:25.971Z,1009.5
2022-07-31T07:44:28.542Z,1009.5
2022-07-31T07:45:31.852Z,1009.5
2022-07-31T07:46:34.999Z,1009.4
2022-07-31T07:48:07.375Z,1009.4
2022-07-31T07:49:09.898Z,1009.4
2022-07-31T07:50:12.587Z,1009.4
2022-07-31T07:51:16.049Z,1009.3
2022-07-31T07:52:18.688Z,1009.4
2022-07-31T07:53:21.879Z,1009.3
2022-07-31T07:54:24.507Z,1009.3
2022-07-31T07:55:26.911Z,1009.3
2022-07-31T07:56:40.171Z,1009.3
2022-07-31T07:57:43.137Z,1009.3
2022-07-31T07:58:46.051Z,1009.3
2022-07-31T07:59:48.070Z,1009.3
2022-07-31T08:00:50.340Z,1009.3
2022-07-31T08:01:53.609Z,1009.3
2022-07-31T08:03:52.196Z,1009.3
2022-07-31T08:04:54.731Z,1009.3
2022-07-31T08:05:59.261Z,1009.2
2022-07-31T08:07:01.751Z,1009.3
2022-07-31T08:08:04.078Z,1009.3
2022-07-31T08:09:06.685Z,1009.3
2022-07-31T08:10:09.579Z,1009.3
2022-07-31T08:11:18.146Z,1009.3
2022-07-31T08:12:20.762Z,1009.2
2022-07-31T08:13:23.887Z,1009.3
2022-07-31T08:14:26.811Z,1009.2
2022-07-31T08:15:29.032Z,1009.2
2022-07-31T08:16:31.947Z,1009.2
2022-07-31T08:17:34.576Z,1009.3
2022-07-31T08:18:37.772Z,1009.2
2022-07-31T08:19:40.680Z,1009.2
2022-07-31T08:20:43.529Z,1009.2
2022-07-31T08:21:46.754Z,1009.2
2022-07-31T08:22:48.880Z,1009.2
2022-07-31T08:23:51.498Z,1009.2
2022-07-31T08:24:54.763Z,1009.2
2022-07-31T08:25:58.906Z,1009.2
2022-07-31T08:27:02.104Z,1009.1
2022-07-31T08:28:24.462Z,1009.2
2022-07-31T08:29:29.485Z,1009.2
2022-07-31T08:30:32.203Z,1009.2
2022-07-31T08:31:35.391Z,1009.2
2022-07-31T08:32:38.364Z,1009.2
2022-07-31T08:33:40.992Z,1009.2
2022-07-31T08:34:43.960Z,1009.2
2022-07-31T08:35:51.396Z,1009.2
2022-07-31T08:36:54.036Z,1009.2
2022-07-31T08:38:05.024Z,1009.2
2022-07-31T08:39:07.955Z,1009.2
2022-07-31T08:40:23.522Z,1009.2
2022-07-31T08:41:26.717Z,1009.2
2022-07-31T08:42:29.337Z,1009.2
2022-07-31T08:44:04.288Z,1009.1
2022-07-31T08:45:07.819Z,1009.2
2022-07-31T08:46:10.997Z,1009.2
2022-07-31T08:47:13.330Z,1009.2
2022-07-31T08:48:15.981Z,1009.2
2022-07-31T08:49:18.917Z,1009.2
2022-07-31T08:50:24.431Z,1009.2
2022-07-31T08:51:27.543Z,1009.2
2022-07-31T08:52:29.896Z,1009.2
2022-07-31T08:53:33.129Z,1009.2
2022-07-31T08:54:35.705Z,1009.1
2022-07-31T08:55:58.058Z,1009.2
2022-07-31T08:57:02.055Z,1009.2
2022-07-31T08:58:06.013Z,1009.2
2022-07-31T08:59:08.919Z,1009.3
2022-07-31T09:00:11.370Z,1009.2
2022-07-31T09:01:14.351Z,1009.3
2022-07-31T09:02:17.540Z,1009.3
2022-07-31T09:03:20.449Z,1009.2
2022-07-31T09:04:23.357Z,1009.2
2022-07-31T09:05:25.770Z,1009.2
2022-07-31T09:06:44.591Z,1009.3
2022-07-31T09:07:47.510Z,1009.2
2022-07-31T09:08:49.899Z,1009.1
2022-07-31T09:09:53.178Z,1009.2
2022-07-31T09:10:56.079Z,1009.2
2022-07-31T09:11:58.995Z,1009.1
2022-07-31T09:13:01.634Z,1009.1
2022-07-31T09:14:04.231Z,1009.1
2022-07-31T09:15:06.798Z,1009.1
2022-07-31T09:16:09.253Z,1009.1
2022-07-31T09:17:11.827Z,1009
2022-07-31T09:18:14.519Z,1009.1
2022-07-31T09:19:54.847Z,1009
2022-07-31T09:20:58.175Z,1009.1
2022-07-31T09:22:09.942Z,1009
2022-07-31T09:23:14.556Z,1009
2022-07-31T09:24:16.609Z,1009
2022-07-31T09:25:18.673Z,1009
2022-07-31T09:26:21.366Z,1009
2022-07-31T09:27:24.308Z,1009
2022-07-31T09:28:26.947Z,1009
2022-07-31T09:29:29.858Z,1009
2022-07-31T09:30:32.778Z,1009
2022-07-31T09:31:35.411Z,1009
2022-07-31T09:32:37.757Z,1009
2022-07-31T09:33:46.241Z,1009
2022-07-31T09:34:49.510Z,1009
2022-07-31T09:35:52.093Z,1009
2022-07-31T09:36:55.341Z,1009
2022-07-31T09:37:57.908Z,1009
2022-07-31T09:39:05.549Z,1009
2022-07-31T09:40:15.096Z,1009
2022-07-31T09:42:10.419Z,1009
2022-07-31T09:43:23.554Z,1009
2022-07-31T09:44:26.884Z,1009
2022-07-31T09:45:29.254Z,1009
2022-07-31T09:46:31.955Z,1009
2022-07-31T09:47:34.584Z,1009
2022-07-31T09:48:37.746Z,1009
2022-07-31T09:49:46.204Z,1008.9
2022-07-31T09:50:49.109Z,1009
2022-07-31T09:51:51.251Z,1008.9
2022-07-31T09:52:53.833Z,1008.9
2022-07-31T09:53:57.043Z,1008.9
2022-07-31T09:54:59.720Z,1009
2022-07-31T09:56:02.390Z,1008.9
2022-07-31T09:57:05.327Z,1008.9
2022-07-31T09:58:09.550Z,1009
2022-07-31T09:59:12.493Z,1008.9
2022-07-31T10:00:17.857Z,1008.9
2022-07-31T10:01:20.562Z,1009
2022-07-31T10:02:23.713Z,1008.9
2022-07-31T10:03:25.999Z,1008.9
2022-07-31T10:04:28.339Z,1008.9
2022-07-31T10:05:30.978Z,1008.8
2022-07-31T10:06:33.909Z,1008.8
2022-07-31T10:07:36.014Z,1008.8
2022-07-31T10:08:38.667Z,1008.9
2022-07-31T10:09:41.289Z,1008.9
2022-07-31T10:10:43.974Z,1008.9
2022-07-31T10:11:46.939Z,1008.9
2022-07-31T10:12:49.588Z,1008.9
2022-07-31T10:13:51.661Z,1008.9
2022-07-31T10:14:54.065Z,1008.9
2022-07-31T10:15:57.241Z,1008.9
2022-07-31T10:17:00.133Z,1008.9
2022-07-31T10:18:03.933Z,1008.9
2022-07-31T10:19:06.572Z,1008.8
2022-07-31T10:20:09.143Z,1008.8
2022-07-31T10:21:12.264Z,1008.8
2022-07-31T10:22:14.892Z,1008.9
2022-07-31T10:23:18.360Z,1008.8
2022-07-31T10:24:28.531Z,1008.8
2022-07-31T10:25:34.007Z,1008.8
2022-07-31T10:27:01.473Z,1008.7
2022-07-31T10:28:15.106Z,1008.8
2022-07-31T10:29:17.443Z,1008.8
2022-07-31T10:30:19.577Z,1008.8
2022-07-31T10:31:31.093Z,1008.8
2022-07-31T10:32:34.053Z,1008.8
2022-07-31T10:33:45.379Z,1008.7
2022-07-31T10:34:48.521Z,1008.7
2022-07-31T10:35:56.469Z,1008.7
2022-07-31T10:36:58.524Z,1008.7
2022-07-31T10:38:01.428Z,1008.7
2022-07-31T10:39:03.453Z,1008.6
2022-07-31T10:40:06.146Z,1008.6
2022-07-31T10:41:09.332Z,1008.6
2022-07-31T10:42:11.624Z,1008.6
2022-07-31T10:43:14.301Z,1008.6
2022-07-31T10:44:16.928Z,1008.6
2022-07-31T10:45:19.212Z,1008.6
2022-07-31T10:46:21.795Z,1008.5
2022-07-31T10:47:24.980Z,1008.5
2022-07-31T10:48:27.593Z,1008.6
2022-07-31T10:49:30.612Z,1008.6
2022-07-31T10:50:33.758Z,1008.6
2022-07-31T10:51:36.376Z,1008.5
2022-07-31T10:52:38.942Z,1008.5
2022-07-31T10:53:56.083Z,1008.5
2022-07-31T10:55:01.950Z,1008.5
2022-07-31T10:56:05.274Z,1008.5
2022-07-31T10:57:08.246Z,1008.5
2022-07-31T10:58:11.707Z,1008.5
2022-07-31T10:59:14.625Z,1008.5
2022-07-31T11:00:16.981Z,1008.5
2022-07-31T11:01:19.830Z,1008.5
2022-07-31T11:02:22.718Z,1008.5
2022-07-31T11:03:25.894Z,1008.5
2022-07-31T11:04:28.461Z,1008.5
2022-07-31T11:06:02.707Z,1008.5
2022-07-31T11:07:07.100Z,1008.4
2022-07-31T11:08:10.142Z,1008.5
2022-07-31T11:09:11.874Z,1008.5
2022-07-31T11:10:14.448Z,1008.5
2022-07-31T11:11:17.023Z,1008.5
2022-07-31T11:12:20.157Z,1008.5
2022-07-31T11:13:36.916Z,1008.5
2022-07-31T11:14:40.417Z,1008.4
2022-07-31T11:15:43.056Z,1008.5
2022-07-31T11:16:46.225Z,1008.4
2022-07-31T11:18:27.632Z,1008.4
2022-07-31T11:19:41.853Z,1008.4
2022-07-31T11:20:44.482Z,1008.4
2022-07-31T11:21:46.849Z,1008.3
2022-07-31T11:22:49.144Z,1008.3
2022-07-31T11:24:04.965Z,1008.3
2022-07-31T11:25:13.884Z,1008.3
2022-07-31T11:26:16.526Z,1008.3
2022-07-31T11:27:44.530Z,1008.3
2022-07-31T11:28:47.384Z,1008.2
2022-07-31T11:30:05.756Z,1008.3
2022-07-31T11:31:16.253Z,1008.3
2022-07-31T11:32:26.468Z,1008.3
2022-07-31T11:33:40.982Z,1008.3
2022-07-31T11:34:46.053Z,1008.3
2022-07-31T11:35:48.671Z,1008.3
2022-07-31T11:36:52.309Z,1008.3
2022-07-31T11:37:58.810Z,1008.3
2022-07-31T11:39:05.703Z,1008.2
2022-07-31T11:40:10.412Z,1008.2
2022-07-31T11:41:16.813Z,1008.2
2022-07-31T11:42:29.610Z,1008.2
2022-07-31T11:43:39.132Z,1008.1
2022-07-31T11:44:41.761Z,1008.2
2022-07-31T11:45:46.070Z,1008.2
2022-07-31T11:46:52.134Z,1008.2
2022-07-31T11:48:13.979Z,1008.2
2022-07-31T11:49:48.315Z,1008.2
2022-07-31T11:50:52.183Z,1008.2
2022-07-31T11:51:55.105Z,1008.1
2022-07-31T11:52:57.960Z,1008.2
2022-07-31T11:54:00.354Z,1008.1
2022-07-31T11:55:09.777Z,1008.1
2022-07-31T11:56:12.594Z,1008.1
2022-07-31T11:57:14.386Z,1008.1
2022-07-31T11:58:17.495Z,1008.1
2022-07-31T11:59:49.420Z,1008.1
2022-07-31T12:00:57.049Z,1008.1
2022-07-31T12:01:59.106Z,1008.1
2022-07-31T12:03:02.265Z,1008.1
2022-07-31T12:04:09.403Z,1008.1
2022-07-31T12:05:11.977Z,1008
2022-07-31T12:06:14.909Z,1008
2022-07-31T12:07:18.162Z,1008
2022-07-31T12:08:19.953Z,1008
2022-07-31T12:10:03.835Z,1007.9
2022-07-31T12:11:08.312Z,1007.9
2022-07-31T12:12:10.109Z,1007.8
2022-07-31T12:13:16.636Z,1007.9
2022-07-31T12:14:19.061Z,1007.9
2022-07-31T12:15:21.978Z,1007.9
2022-07-31T12:16:24.604Z,1007.8
2022-07-31T12:17:27.245Z,1007.8
2022-07-31T12:18:29.319Z,1007.8
2022-07-31T12:19:38.820Z,1007.8
2022-07-31T12:20:40.900Z,1007.8
2022-07-31T12:21:43.472Z,1007.8
2022-07-31T12:22:46.146Z,1007.8
2022-07-31T12:23:48.719Z,1007.8
2022-07-31T12:24:52.312Z,1007.7
2022-07-31T12:25:55.776Z,1007.8
2022-07-31T12:26:58.687Z,1007.7
2022-07-31T12:28:02.174Z,1007.7
2022-07-31T12:29:05.352Z,1007.7
2022-07-31T12:30:08.046Z,1007.7
2022-07-31T12:31:10.969Z,1007.6
2022-07-31T12:32:13.658Z,1007.6
2022-07-31T12:33:16.842Z,1007.6
2022-07-31T12:34:19.751Z,1007.6
2022-07-31T12:35:21.834Z,1007.6
2022-07-31T12:36:24.465Z,1007.5
2022-07-31T12:37:27.096Z,1007.5
2022-07-31T12:38:48.099Z,1007.5
2022-07-31T12:40:01.589Z,1007.5
2022-07-31T12:41:05.054Z,1007.5
2022-07-31T12:42:07.680Z,1007.5
2022-07-31T12:43:10.364Z,1007.4
2022-07-31T12:44:15.087Z,1007.5
2022-07-31T12:45:24.629Z,1007.5
2022-07-31T12:46:27.271Z,1007.4
2022-07-31T12:47:35.145Z,1007.4
2022-07-31T12:48:46.212Z,1007.4
2022-07-31T12:49:51.439Z,1007.4
2022-07-31T12:50:56.560Z,1007.4
2022-07-31T12:52:00.088Z,1007.4
2022-07-31T12:53:02.157Z,1007.4
2022-07-31T12:54:04.933Z,1007.4
2022-07-31T12:55:07.892Z,1007.3
2022-07-31T12:56:10.044Z,1007.3
2022-07-31T12:57:13.474Z,1007.3
2022-07-31T12:58:16.501Z,1007.3
2022-07-31T12:59:18.853Z,1007.2
2022-07-31T13:00:21.815Z,1007.2
2022-07-31T13:01:25.233Z,1007.3
2022-07-31T13:02:28.495Z,1007.3
2022-07-31T13:03:46.538Z,1007.2
2022-07-31T13:04:49.968Z,1007.2
2022-07-31T13:05:53.161Z,1007.1
2022-07-31T13:06:55.516Z,1007.2
2022-07-31T13:07:58.370Z,1007.1
2022-07-31T13:09:01.294Z,1007.2
2022-07-31T13:10:24.141Z,1007.1
2022-07-31T13:11:48.276Z,1007.1
2022-07-31T13:13:00.814Z,1007.1
2022-07-31T13:14:05.819Z,1007.1
2022-07-31T13:15:11.726Z,1007
2022-07-31T13:16:14.957Z,1007
2022-07-31T13:17:18.122Z,1007
2022-07-31T13:18:21.229Z,1007
2022-07-31T13:19:23.580Z,1007
2022-07-31T13:20:26.001Z,1007
2022-07-31T13:21:50.092Z,1007
2022-07-31T13:22:52.673Z,1007
2022-07-31T13:23:56.781Z,1006.9
2022-07-31T13:24:59.712Z,1006.9
2022-07-31T13:26:02.083Z,1006.9
2022-07-31T13:27:05.761Z,1006.9
2022-07-31T13:28:09.522Z,1006.9
2022-07-31T13:29:12.439Z,1006.9
2022-07-31T13:30:15.447Z,1006.9
2022-07-31T13:31:17.817Z,1006.8
2022-07-31T13:32:20.737Z,1006.9
2022-07-31T13:33:27.565Z,1006.9
2022-07-31T13:34:29.917Z,1006.9
2022-07-31T13:35:32.825Z,1006.9